Time;durP1;ratioP1;P1;durP2;ratioP2;P2;SDS_P1;SDS_P2;PMS_P1;PMS_P2;Temp;Humidity;BMP_temperature;BMP_pressure;BME280_temperature;BME280_humidity;BME280_pressure;Samples;Min_cycle;Max_cycle;Signal;HPM_P1;HPM_P2
2021/03/10 00:01:14;;;;;;;25.13;9.33;;;;;;;-9.65;70.85;101005.87;1741883;82;21872;-74
2021/03/10 00:03:42;;;;;;;17.97;8.17;;;;;;;-9.66;70.71;101009.22;1741916;81;21201;-72
2021/03/10 00:06:10;;;;;;;11.20;5.00;;;;;;;-9.70;70.64;101008.55;1742118;82;21687;-72
2021/03/10 00:08:39;;;;;;;15.87;7.27;;;;;;;-9.73;70.31;101014.73;1741817;81;21243;-74
2021/03/10 00:11:07;;;;;;;19.17;7.23;;;;;;;-9.75;70.78;101010.84;1747913;81;21649;-75
2021/03/10 00:13:37;;;;;;;17.32;7.53;;;;;;;-9.76;70.62;101013.28;1810000;79;21352;-74
2021/03/10 00:16:07;;;;;;;16.53;7.47;;;;;;;-9.77;70.66;101012.81;1806582;79;21179;-74
2021/03/10 00:18:36;;;;;;;15.00;6.67;;;;;;;-9.80;70.41;101012.24;1808915;79;21652;-73
2021/03/10 00:21:05;;;;;;;14.87;7.10;;;;;;;-9.80;70.05;101007.52;1738734;82;21164;-74
2021/03/10 00:23:33;;;;;;;16.83;7.10;;;;;;;-9.82;70.01;101007.45;1738920;82;21598;-74
2021/03/10 00:26:02;;;;;;;15.77;7.77;;;;;;;-9.85;70.31;101009.80;1739973;82;22293;-76
2021/03/10 00:28:30;;;;;;;16.63;7.77;;;;;;;-9.88;70.10;101007.48;1817565;78;21143;-74
2021/03/10 00:30:57;;;;;;;15.23;6.80;;;;;;;-9.92;69.84;100999.63;1817830;78;21650;-74
2021/03/10 00:33:25;;;;;;;20.30;8.83;;;;;;;-9.94;69.87;100998.69;1817586;78;21186;-72
2021/03/10 00:35:53;;;;;;;17.13;8.13;;;;;;;-9.95;70.10;100999.45;1817436;78;21115;-72
2021/03/10 00:38:21;;;;;;;16.47;7.83;;;;;;;-9.98;70.18;100991.64;1817461;78;22283;-71
2021/03/10 00:40:49;;;;;;;15.67;7.80;;;;;;;-10.00;69.94;100993.22;1817300;78;21115;-71
2021/03/10 00:43:16;;;;;;;16.47;7.90;;;;;;;-10.01;70.09;100993.98;1816086;78;21187;-72
2021/03/10 00:45:44;;;;;;;20.80;7.80;;;;;;;-10.03;69.96;100996.87;1811319;79;22258;-71
2021/03/10 00:48:12;;;;;;;17.30;7.90;;;;;;;-10.08;69.79;100999.52;1747504;81;21183;-71
2021/03/10 00:50:40;;;;;;;15.03;6.90;;;;;;;-10.15;70.05;100997.39;1747431;82;21706;-73
2021/03/10 00:53:09;;;;;;;17.43;7.17;;;;;;;-10.22;69.91;100995.27;1749104;81;21238;-72
2021/03/10 00:55:38;;;;;;;15.00;7.87;;;;;;;-10.28;70.01;100992.38;1749145;82;21155;-72
2021/03/10 00:58:06;;;;;;;18.23;7.70;;;;;;;-10.32;70.14;100995.55;1747116;82;21583;-73
2021/03/10 01:00:33;;;;;;;15.60;8.13;;;;;;;-10.36;70.09;100992.80;1747070;82;21155;-72
2021/03/10 01:03:03;;;;;;;14.55;7.60;;;;;;;-10.40;70.14;101001.06;1747453;82;21359;-71
2021/03/10 01:05:32;;;;;;;16.17;7.80;;;;;;;-10.45;70.43;100992.23;1743607;82;21402;-73
2021/03/10 01:08:00;;;;;;;19.33;8.17;;;;;;;-10.46;70.45;100995.58;1746795;81;21655;-72
2021/03/10 01:10:27;;;;;;;14.77;7.10;;;;;;;-10.48;70.52;100993.33;1746968;82;21175;-71
2021/03/10 01:12:55;;;;;;;18.20;7.87;;;;;;;-10.49;70.36;101003.05;1746935;82;21243;-72
2021/03/10 01:15:23;;;;;;;17.90;8.57;;;;;;;-10.52;70.47;100994.33;1746839;82;21202;-72
2021/03/10 01:17:50;;;;;;;17.73;8.93;;;;;;;-10.58;70.59;100990.63;1749127;81;21177;-72
2021/03/10 01:20:20;;;;;;;19.50;8.10;;;;;;;-10.62;70.61;100989.94;1784116;80;21173;-74
2021/03/10 01:22:47;;;;;;;16.07;8.37;;;;;;;-10.66;70.74;100990.94;1752964;81;21163;-73
2021/03/10 01:25:15;;;;;;;19.70;9.10;;;;;;;-10.71;70.78;100984.69;1746807;82;21237;-73
2021/03/10 01:27:44;;;;;;;20.40;8.33;;;;;;;-10.74;70.88;100985.75;1726269;83;21204;-72
2021/03/10 01:30:13;;;;;;;20.63;9.20;;;;;;;-10.77;71.30;100987.31;1752900;81;21206;-75
2021/03/10 01:32:41;;;;;;;18.05;9.53;;;;;;;-10.78;71.33;100989.39;1723192;83;21139;-74
2021/03/10 01:35:12;;;;;;;21.87;9.83;;;;;;;-10.80;71.53;100983.32;1717282;83;21162;-74
2021/03/10 01:37:39;;;;;;;19.87;7.10;;;;;;;-10.82;71.51;100992.52;1726543;83;21218;-72
2021/03/10 01:40:13;;;;;;;23.30;9.63;;;;;;;-10.80;71.83;100988.41;1753215;81;21379;-76
2021/03/10 01:42:41;;;;;;;13.87;6.67;;;;;;;-10.79;72.17;100991.83;1723143;83;21261;-73
2021/03/10 01:45:13;;;;;;;21.87;9.43;;;;;;;-10.79;72.20;100990.19;1717234;83;21151;-71
2021/03/10 01:47:46;;;;;;;20.43;8.83;;;;;;;-10.76;72.26;100993.31;1764446;80;21592;-72
2021/03/10 01:50:18;;;;;;;14.03;6.63;;;;;;;-10.75;72.58;100998.00;1781758;80;21137;-72
2021/03/10 01:52:46;;;;;;;20.67;9.03;;;;;;;-10.77;72.48;100993.67;1782571;80;21370;-74
2021/03/10 01:55:15;;;;;;;11.87;6.07;;;;;;;-10.74;72.83;100991.75;1783266;80;21180;-73
2021/03/10 01:57:43;;;;;;;24.53;8.40;;;;;;;-10.75;73.07;100991.23;1779846;80;21589;-73
2021/03/10 02:00:12;;;;;;;18.73;9.37;;;;;;;-10.70;73.60;100995.34;1781885;80;21196;-74
2021/03/10 02:02:42;;;;;;;20.33;8.83;;;;;;;-10.71;73.49;100992.32;1781695;80;21117;-74
2021/03/10 02:05:15;;;;;;;21.53;9.67;;;;;;;-10.75;73.01;101003.09;1781539;80;21456;-73
2021/03/10 02:08:23;;;;;;;23.50;10.20;;;;;;;-10.79;72.87;101004.19;1781437;80;21181;-73
2021/03/10 02:11:12;;;;;;;26.03;10.63;;;;;;;-10.84;72.85;101008.48;1781277;80;21170;-73
2021/03/10 02:14:04;;;;;;;28.13;11.20;;;;;;;-10.91;72.68;101004.67;1781433;80;21161;-72
2021/03/10 02:16:40;;;;;;;32.10;11.53;;;;;;;-10.95;72.85;101001.83;1781458;80;21150;-72
2021/03/10 02:19:30;;;;;;;30.13;13.20;;;;;;;-10.98;72.98;100999.98;1773056;80;22244;-72
2021/03/10 02:22:06;;;;;;;27.10;12.37;;;;;;;-11.01;73.01;101003.61;1757507;80;21211;-73
2021/03/10 02:25:03;;;;;;;30.43;11.80;;;;;;;-11.04;72.98;101007.21;1811168;79;21702;-74
2021/03/10 02:27:51;;;;;;;34.63;12.67;;;;;;;-11.07;73.13;101007.91;1770735;79;21139;-73
2021/03/10 02:30:30;;;;;;;30.60;12.03;;;;;;;-11.11;73.20;101007.61;1810934;79;21207;-73
2021/03/10 02:33:12;;;;;;;28.57;12.23;;;;;;;-11.12;73.19;100999.50;1741659;82;21279;-75
2021/03/10 02:35:44;;;;;;;35.13;13.30;;;;;;;-11.13;73.24;101004.98;1811001;79;21147;-73
2021/03/10 02:38:16;;;;;;;35.67;12.90;;;;;;;-11.14;73.25;101002.34;1740832;82;21790;-72
2021/03/10 02:40:43;;;;;;;29.90;13.40;;;;;;;-11.17;73.28;101007.24;1810798;79;21147;-68
2021/03/10 02:43:11;;;;;;;33.30;13.67;;;;;;;-11.22;73.37;100998.92;1741739;82;21702;-66
2021/03/10 02:45:39;;;;;;;29.83;13.60;;;;;;;-11.25;73.41;101003.82;1810751;79;21679;-66
2021/03/10 02:48:07;;;;;;;32.43;13.20;;;;;;;-11.26;73.37;101005.86;1810855;79;21691;-67
2021/03/10 02:53:13;;;;;;;31.33;14.00;;;;;;;-11.25;73.45;101005.09;1821606;76;26794;-66
2021/03/10 02:55:41;;;;;;;28.10;13.70;;;;;;;-11.31;73.47;101007.23;1783781;80;21111;-66
2021/03/10 02:58:11;;;;;;;32.17;13.20;;;;;;;-11.31;73.55;101003.81;1784074;80;21601;-65
2021/03/10 03:00:40;;;;;;;28.33;12.47;;;;;;;-11.33;73.59;101008.78;1783768;80;21421;-66
2021/03/10 03:03:08;;;;;;;27.57;11.27;;;;;;;-11.33;73.85;101003.70;1783985;79;21219;-67
2021/03/10 03:05:38;;;;;;;26.83;11.93;;;;;;;-11.35;73.85;101000.58;1783976;80;21626;-65
2021/03/10 03:08:06;;;;;;;32.23;13.07;;;;;;;-11.35;73.87;101006.94;1783906;79;21201;-66
2021/03/10 03:10:38;;;;;;;34.43;13.17;;;;;;;-11.37;73.95;101004.28;1783844;80;21382;-66
2021/03/10 03:13:13;;;;;;;34.47;13.27;;;;;;;-11.37;73.89;101006.83;1783838;80;21178;-66
2021/03/10 03:15:43;;;;;;;28.67;12.87;;;;;;;-11.38;73.97;101002.53;1783705;79;21230;-66
2021/03/10 03:18:11;;;;;;;29.70;11.10;;;;;;;-11.37;74.09;101004.68;1784069;80;21644;-67
2021/03/10 03:20:39;;;;;;;30.20;12.67;;;;;;;-11.36;74.04;101011.14;1735242;80;21620;-67
2021/03/10 03:23:07;;;;;;;31.30;12.97;;;;;;;-11.36;74.09;101004.79;1734409;82;21200;-68
2021/03/10 03:25:38;;;;;;;29.70;12.43;;;;;;;-11.36;73.99;101007.70;1734575;82;21224;-66
2021/03/10 03:28:09;;;;;;;26.83;12.43;;;;;;;-11.37;73.90;101011.03;1734513;82;21172;-67
2021/03/10 03:30:38;;;;;;;28.60;12.63;;;;;;;-11.37;74.16;101008.49;1714014;82;21153;-69
2021/03/10 03:33:09;;;;;;;25.47;11.47;;;;;;;-11.39;74.05;101013.47;1734648;82;21188;-68
2021/03/10 03:35:38;;;;;;;28.43;12.30;;;;;;;-11.39;74.07;101016.01;1734720;82;21360;-67
2021/03/10 03:38:05;;;;;;;28.43;11.30;;;;;;;-11.40;74.20;101011.72;1734533;82;21215;-67
2021/03/10 03:40:37;;;;;;;34.05;12.45;;;;;;;-11.41;74.17;101014.66;1734631;82;21236;-66
2021/03/10 03:43:09;;;;;;;24.57;11.43;;;;;;;-11.42;74.14;101012.87;1734829;82;21207;-67
2021/03/10 03:45:37;;;;;;;18.63;9.03;;;;;;;-11.42;74.15;101019.63;1734352;82;21199;-68
2021/03/10 03:48:07;;;;;;;31.00;12.73;;;;;;;-11.43;74.19;101012.41;1734615;82;21370;-67
2021/03/10 03:50:34;;;;;;;40.35;10.25;;;;;;;-11.43;74.19;101010.27;1734629;82;21196;-68
2021/03/10 03:53:03;;;;;;;25.63;11.70;;;;;;;-11.43;74.07;101016.62;1734470;80;21219;-68
2021/03/10 03:55:31;;;;;;;26.27;12.37;;;;;;;-11.42;74.42;101016.69;1734556;82;21169;-68
2021/03/10 03:57:59;;;;;;;22.67;9.80;;;;;;;-11.42;74.45;101008.20;1734425;82;21172;-68
2021/03/10 04:00:27;;;;;;;25.73;11.97;;;;;;;-11.40;74.32;101015.53;1734286;82;21748;-68
2021/03/10 04:02:55;;;;;;;30.27;12.47;;;;;;;-11.42;74.30;101016.69;1734134;82;21215;-68
2021/03/10 04:05:23;;;;;;;33.43;13.03;;;;;;;-11.42;74.38;101017.09;1734108;82;21212;-68
2021/03/10 04:07:58;;;;;;;34.08;12.18;;;;;;;-11.39;74.64;101012.19;1731659;82;21196;-68
2021/03/10 04:10:38;;;;;;;18.93;8.97;;;;;;;-11.39;74.67;101010.92;1733844;82;21192;-69
2021/03/10 04:13:06;;;;;;;31.30;11.85;;;;;;;-11.41;74.54;101008.67;1703829;82;21396;-68
2021/03/10 04:15:36;;;;;;;26.03;11.33;;;;;;;-11.41;74.77;101018.84;1733895;82;21220;-67
2021/03/10 04:18:05;;;;;;;30.72;11.78;;;;;;;-11.41;75.00;101012.48;1741203;82;21170;-68
2021/03/10 04:20:33;;;;;;;47.43;17.60;;;;;;;-11.42;74.86;101015.82;1730512;82;21412;-68
2021/03/10 04:23:00;;;;;;;32.87;13.17;;;;;;;-11.45;74.96;101021.98;1748653;82;21181;-66
2021/03/10 04:25:28;;;;;;;37.03;13.97;;;;;;;-11.48;74.88;101016.68;1731052;82;21280;-68
2021/03/10 04:27:55;;;;;;;40.03;14.97;;;;;;;-11.47;74.91;101019.73;1730849;82;21202;-68
2021/03/10 04:30:45;;;;;;;25.57;10.13;;;;;;;-11.45;75.18;101023.26;1730564;82;21127;-67
2021/03/10 04:33:13;;;;;;;30.08;14.28;;;;;;;-11.43;75.05;101024.24;1788845;80;21120;-68
2021/03/10 04:35:43;;;;;;;40.48;14.00;;;;;;;-11.42;75.00;101023.45;1787090;80;21180;-68
2021/03/10 04:38:13;;;;;;;34.27;13.33;;;;;;;-11.41;75.02;101022.66;1756935;81;21366;-67
2021/03/10 04:40:41;;;;;;;25.50;12.20;;;;;;;-11.41;74.81;101026.10;1757582;81;21200;-68
2021/03/10 04:43:09;;;;;;;29.03;13.33;;;;;;;-11.45;74.94;101014.36;1757595;81;21200;-69
2021/03/10 04:45:37;;;;;;;29.43;13.40;;;;;;;-11.38;74.96;101026.69;1757018;81;21209;-70
2021/03/10 04:48:06;;;;;;;36.87;15.60;;;;;;;-11.36;74.93;101025.12;1757147;81;21608;-68
2021/03/10 04:50:33;;;;;;;27.57;13.33;;;;;;;-11.32;75.06;101032.55;1757125;81;21331;-67
2021/03/10 04:53:02;;;;;;;43.57;16.30;;;;;;;-11.28;74.93;101032.84;1756936;81;21207;-66
2021/03/10 04:55:30;;;;;;;41.53;15.90;;;;;;;-11.25;74.97;101029.25;1757331;81;21200;-66
2021/03/10 04:57:58;;;;;;;29.97;13.13;;;;;;;-11.20;75.15;101030.42;1757231;81;21195;-65
2021/03/10 05:00:25;;;;;;;38.10;15.70;;;;;;;-11.14;75.08;101025.23;1757959;81;21603;-66
2021/03/10 05:02:52;;;;;;;40.40;17.30;;;;;;;-11.07;75.15;101028.25;1751924;81;22736;-72
2021/03/10 05:05:20;;;;;;;32.83;15.70;;;;;;;-10.98;75.18;101029.23;1734558;81;21160;-71
2021/03/10 05:07:48;;;;;;;41.60;18.73;;;;;;;-10.91;75.10;101026.30;1725962;82;21146;-70
2021/03/10 05:10:18;;;;;;;52.53;22.00;;;;;;;-10.82;75.40;101035.78;1755716;81;21186;-70
2021/03/10 05:12:46;;;;;;;58.87;22.60;;;;;;;-10.71;75.29;101033.05;1771367;79;21221;-72
2021/03/10 05:15:13;;;;;;;48.77;20.90;;;;;;;-10.58;75.35;101030.09;1751122;81;21808;-71
2021/03/10 05:17:41;;;;;;;51.03;22.03;;;;;;;-10.04;76.14;101037.13;1762797;80;21139;-73
2021/03/10 05:20:11;;;;;;;50.17;20.97;;;;;;;-9.20;75.70;101033.54;1788641;79;21154;-73
2021/03/10 05:22:39;;;;;;;49.63;19.53;;;;;;;-8.25;74.67;101032.73;1788836;80;21238;-73
2021/03/10 05:25:09;;;;;;;54.57;20.30;;;;;;;-7.24;73.92;101030.63;1789194;80;21150;-73
2021/03/10 05:27:38;;;;;;;47.17;20.62;;;;;;;-6.24;72.00;101034.89;1789129;79;21195;-72
2021/03/10 05:30:10;;;;;;;51.60;21.70;;;;;;;-5.23;69.83;101037.49;1762118;81;21175;-72
2021/03/10 05:32:38;;;;;;;60.60;26.20;;;;;;;-4.30;67.24;101037.72;1763529;79;21200;-73
2021/03/10 05:35:09;;;;;;;67.35;24.27;;;;;;;-3.40;64.22;101024.66;1756342;81;21257;-72
2021/03/10 05:37:38;;;;;;;58.78;24.67;;;;;;;-2.64;61.73;101035.70;1756147;81;21184;-72
2021/03/10 05:40:08;;;;;;;57.38;25.10;;;;;;;-2.00;59.30;101035.03;1756314;81;22132;-72
2021/03/10 05:42:40;;;;;;;75.00;29.27;;;;;;;-1.28;57.90;101032.23;1744183;81;21211;-74
2021/03/10 05:46:55;;;;;;;72.43;28.73;;;;;;;-0.07;54.02;101032.84;1806267;77;23340;-68
2021/03/10 05:49:23;;;;;;;62.93;29.35;;;;;;;0.44;52.78;101037.33;1759658;81;21103;-68
2021/03/10 05:51:51;;;;;;;88.52;32.20;;;;;;;1.64;49.50;101048.38;1754696;81;21375;-68
2021/03/10 05:54:20;;;;;;;64.87;32.42;;;;;;;1.64;49.50;101048.38;1755270;81;21649;-68
2021/03/10 05:56:47;;;;;;;83.42;34.35;;;;;;;2.16;47.59;101054.23;1754321;79;21168;-69
2021/03/10 05:59:15;;;;;;;69.03;30.92;;;;;;;2.65;45.79;101050.03;1752604;81;21157;-73
2021/03/10 06:01:43;;;;;;;73.97;31.62;;;;;;;3.04;44.29;101053.86;1773297;80;21147;-71
2021/03/10 06:04:11;;;;;;;61.63;29.07;;;;;;;3.38;42.39;101049.76;1710243;83;22763;-69
2021/03/10 06:06:41;;;;;;;56.33;26.77;;;;;;;3.57;39.97;101054.25;1706546;83;21219;-72
2021/03/10 06:09:14;;;;;;;47.03;23.77;;;;;;;3.76;39.80;101057.83;1693801;84;21675;-71
2021/03/10 06:11:59;;;;;;;55.38;24.67;;;;;;;3.66;37.28;101055.15;1693596;84;21135;-73
2021/03/10 06:14:27;;;;;;;46.70;22.22;;;;;;;3.51;37.37;101051.59;1693730;83;21213;-70
2021/03/10 06:17:11;;;;;;;54.33;25.77;;;;;;;3.58;38.97;101058.58;1719030;83;21266;-70
2021/03/10 06:19:47;;;;;;;49.65;23.55;;;;;;;3.69;38.02;101064.31;1725585;82;21240;-70
2021/03/10 06:22:18;;;;;;;43.58;21.15;;;;;;;3.94;38.00;101068.80;1719114;83;21204;-71
2021/03/10 06:24:53;;;;;;;47.83;22.00;;;;;;;4.06;38.82;101067.11;1700998;83;21219;-71
2021/03/10 06:27:24;;;;;;;46.53;22.52;;;;;;;4.29;36.86;101069.38;1691499;84;21643;-70
2021/03/10 06:29:58;;;;;;;46.10;19.65;;;;;;;4.55;38.21;101062.06;1717940;83;22215;-70
2021/03/10 06:32:26;;;;;;;62.10;21.55;;;;;;;4.91;36.33;101061.70;1699924;83;21682;-71
2021/03/10 06:34:54;;;;;;;35.85;16.42;;;;;;;4.96;35.49;101066.05;1693676;84;21200;-71
2021/03/10 06:37:29;;;;;;;29.92;15.23;;;;;;;5.09;37.42;101073.47;1697550;83;21168;-71
2021/03/10 06:40:17;;;;;;;24.60;14.50;;;;;;;5.27;35.83;101073.91;1711078;83;21206;-71
2021/03/10 06:42:54;;;;;;;27.17;13.13;;;;;;;5.40;33.25;101073.45;1693790;83;21381;-71
2021/03/10 06:45:31;;;;;;;27.87;13.50;;;;;;;5.47;36.13;101076.50;1718388;82;21191;-70
2021/03/10 06:47:59;;;;;;;34.15;17.27;;;;;;;5.36;33.87;101070.41;1716508;82;21179;-71
2021/03/10 06:50:38;;;;;;;31.10;14.00;;;;;;;5.68;34.50;101072.56;1715028;82;21580;-71
2021/03/10 06:53:05;;;;;;;35.10;15.95;;;;;;;6.20;35.45;101069.39;1668791;84;21220;-71
2021/03/10 06:55:45;;;;;;;29.75;14.65;;;;;;;6.47;32.06;101064.03;1720568;82;21649;-72
2021/03/10 06:58:24;;;;;;;23.22;12.30;;;;;;;6.39;31.56;101068.86;1711078;82;21196;-70
2021/03/10 07:01:01;;;;;;;28.30;13.50;;;;;;;6.22;34.13;101067.64;1718449;82;21199;-71
2021/03/10 07:03:29;;;;;;;21.70;11.57;;;;;;;6.34;30.18;101066.72;1730786;82;21215;-71
2021/03/10 07:05:57;;;;;;;44.65;11.30;;;;;;;6.18;29.10;101071.14;1694133;82;21946;-70
2021/03/10 07:08:26;;;;;;;177.22;20.02;;;;;;;5.89;33.26;101079.93;1709558;83;22383;-72
2021/03/10 07:10:53;;;;;;;24.37;11.57;;;;;;;6.01;30.15;101072.52;1711498;82;21204;-70
2021/03/10 07:13:21;;;;;;;15.43;8.78;;;;;;;6.00;29.79;101072.93;1715719;82;21176;-71
2021/03/10 07:15:52;;;;;;;25.02;9.53;;;;;;;6.16;29.60;101068.97;1716427;82;21227;-70
2021/03/10 07:18:24;;;;;;;14.93;7.83;;;;;;;6.40;27.63;101077.16;1725808;82;21683;-71
2021/03/10 07:20:54;;;;;;;19.05;7.55;;;;;;;6.60;29.55;101070.49;1717312;82;21864;-70
2021/03/10 07:23:22;;;;;;;12.25;6.45;;;;;;;6.76;27.12;101067.34;1717691;82;21660;-70
2021/03/10 07:25:50;;;;;;;14.75;8.03;;;;;;;6.79;27.03;101068.66;1719248;82;21168;-70
2021/03/10 07:28:21;;;;;;;12.43;6.33;;;;;;;6.29;27.47;101068.05;1714261;82;21219;-69
2021/03/10 07:30:48;;;;;;;14.47;7.50;;;;;;;5.88;27.95;101070.33;1711497;82;21643;-69
2021/03/10 07:33:21;;;;;;;16.60;6.83;;;;;;;6.02;28.94;101065.95;1637258;86;21436;-69
2021/03/10 07:35:58;;;;;;;19.17;8.13;;;;;;;6.42;27.47;101061.88;1718946;82;21184;-72
2021/03/10 07:38:35;;;;;;;9.13;5.22;;;;;;;6.33;27.55;101063.23;1712940;82;21105;-70
2021/03/10 07:41:14;;;;;;;10.72;4.50;;;;;;;6.35;26.79;101064.10;1706015;82;21191;-70
2021/03/10 07:43:47;;;;;;;19.95;7.12;;;;;;;6.05;26.26;101065.97;1689885;82;21207;-71
2021/03/10 07:46:24;;;;;;;14.15;6.22;;;;;;;5.98;26.74;101061.64;1735298;81;21200;-71
2021/03/10 07:48:52;;;;;;;8.83;5.08;;;;;;;6.21;27.52;101053.70;1693828;84;21150;-69
2021/03/10 07:51:33;;;;;;;8.20;4.50;;;;;;;6.75;26.41;101058.63;1743693;81;21192;-68
2021/03/10 07:54:09;;;;;;;9.25;5.00;;;;;;;7.08;25.83;101056.64;1737340;81;21205;-71
2021/03/10 07:56:37;;;;;;;8.18;4.92;;;;;;;7.46;26.94;101048.47;1738532;81;21642;-71
2021/03/10 07:59:16;;;;;;;9.48;6.03;;;;;;;7.93;24.96;101045.77;1736748;81;21375;-71
2021/03/10 08:01:47;;;;;;;10.53;5.80;;;;;;;7.75;24.01;101044.66;1737278;81;21696;-69
2021/03/10 08:04:17;;;;;;;9.50;5.30;;;;;;;7.73;25.19;101055.61;1741173;81;21176;-71
2021/03/10 08:06:52;;;;;;;7.15;4.03;;;;;;;7.77;23.87;101051.63;1741165;81;21168;-70
2021/03/10 08:09:25;;;;;;;6.87;3.50;;;;;;;7.24;23.94;101047.77;1739400;81;21262;-70
2021/03/10 08:12:10;;;;;;;23.15;4.72;;;;;;;6.73;23.43;101051.23;1737879;80;22073;-70
2021/03/10 08:14:42;;;;;;;9.05;5.22;;;;;;;6.64;25.20;101060.45;1737561;81;21184;-72
2021/03/10 08:17:28;;;;;;;10.35;5.17;;;;;;;6.72;25.11;101058.22;1750343;81;21176;-71
2021/03/10 08:20:01;;;;;;;15.80;4.60;;;;;;;6.62;25.02;101056.52;1743191;81;21215;-71
2021/03/10 08:22:32;;;;;;;13.85;6.00;;;;;;;6.66;25.25;101050.84;1745483;81;21195;-71
2021/03/10 08:25:01;;;;;;;11.00;6.12;;;;;;;6.93;25.09;101047.17;1739795;81;21687;-70
2021/03/10 08:27:33;;;;;;;10.75;5.15;;;;;;;7.11;24.76;101049.64;1685340;84;21176;-70
2021/03/10 08:30:15;;;;;;;7.67;4.75;;;;;;;7.15;25.23;101045.23;1683027;84;21674;-71
2021/03/10 08:32:42;;;;;;;8.73;5.45;;;;;;;7.20;26.69;101050.44;1681422;84;21200;-71
2021/03/10 08:35:14;;;;;;;7.92;4.65;;;;;;;7.41;25.46;101041.52;1740515;81;21647;-70
2021/03/10 08:37:43;;;;;;;11.38;4.95;;;;;;;7.57;25.06;101040.51;1743540;81;21264;-70
2021/03/10 08:40:14;;;;;;;10.88;5.30;;;;;;;7.60;27.98;101043.09;1759418;81;21199;-71
2021/03/10 08:42:44;;;;;;;8.35;4.90;;;;;;;8.07;24.31;101037.73;1652935;85;21261;-71
2021/03/10 08:45:28;;;;;;;8.00;4.62;;;;;;;8.38;26.89;101035.60;1679880;84;21181;-70
2021/03/10 08:48:07;;;;;;;11.38;5.47;;;;;;;8.88;24.10;101030.55;1681842;84;21212;-71
2021/03/10 08:50:39;;;;;;;13.98;4.90;;;;;;;8.99;22.66;101036.47;1748531;81;21371;-74
2021/03/10 08:53:09;;;;;;;9.20;4.70;;;;;;;8.72;23.33;101036.89;1737238;81;21199;-70
2021/03/10 08:55:37;;;;;;;10.05;5.17;;;;;;;8.46;23.12;101032.89;1741543;81;21167;-73
2021/03/10 08:58:15;;;;;;;6.78;4.62;;;;;;;8.42;22.66;101029.91;1748871;81;21663;-71
2021/03/10 09:00:45;;;;;;;9.38;5.30;;;;;;;8.37;24.22;101029.05;1741388;81;21192;-71
2021/03/10 09:03:17;;;;;;;8.68;5.20;;;;;;;8.34;22.84;101029.96;1738251;81;21507;-70
2021/03/10 09:05:49;;;;;;;10.13;6.80;;;;;;;8.72;23.86;101023.77;1740798;81;21626;-71
2021/03/10 09:08:24;;;;;;;11.93;4.80;;;;;;;9.03;22.51;101023.71;1741688;81;21407;-70
2021/03/10 09:10:55;;;;;;;9.68;4.65;;;;;;;8.84;22.30;101027.54;1676664;84;21247;-71
2021/03/10 09:13:43;;;;;;;10.85;4.28;;;;;;;8.51;22.44;101029.78;1870982;76;28227;-72
2021/03/10 09:16:14;;;;;;;6.87;4.92;;;;;;;8.28;23.70;101035.73;1760857;80;21186;-73
2021/03/10 09:19:01;;;;;;;30.57;12.70;;;;;;;8.50;22.51;101024.55;1873082;75;27698;-72
2021/03/10 09:21:40;;;;;;;9.48;5.25;;;;;;;8.85;22.32;101018.75;1854945;77;21353;-71
2021/03/10 09:24:10;;;;;;;14.70;7.75;;;;;;;8.95;22.34;101022.09;1849232;77;21346;-71
2021/03/10 09:26:41;;;;;;;11.93;4.65;;;;;;;9.41;22.84;101026.60;1854859;77;21190;-71
2021/03/10 09:29:11;;;;;;;9.08;4.87;;;;;;;9.64;21.91;101024.41;1781970;80;21188;-71
2021/03/10 09:31:54;;;;;;;8.05;4.62;;;;;;;9.30;21.63;101024.61;1780148;80;21179;-70
2021/03/10 09:34:25;;;;;;;9.25;4.58;;;;;;;9.23;22.06;101019.90;1754142;81;21202;-72
2021/03/10 09:36:54;;;;;;;7.95;4.20;;;;;;;9.52;21.30;101029.02;1754069;81;21329;-71
2021/03/10 09:39:23;;;;;;;6.37;4.55;;;;;;;9.33;21.23;101020.14;1781595;80;21115;-71
2021/03/10 09:41:58;;;;;;;7.30;4.45;;;;;;;9.17;21.03;101018.68;1782101;79;21210;-72
2021/03/10 09:44:44;;;;;;;9.58;5.00;;;;;;;8.92;21.31;101014.27;1833498;76;28371;-73
2021/03/10 09:47:21;;;;;;;8.58;4.53;;;;;;;8.83;21.41;101023.16;1786029;77;21175;-73
2021/03/10 09:49:55;;;;;;;7.13;4.67;;;;;;;9.03;21.52;101013.20;1805178;79;21364;-71
2021/03/10 09:52:51;;;;;;;8.80;4.85;;;;;;;8.95;21.10;101028.24;1808796;77;21154;-71
2021/03/10 09:55:21;;;;;;;10.40;4.40;;;;;;;8.68;21.38;101026.05;1797218;77;21127;-72
2021/03/10 09:58:02;;;;;;;;;;;;;;;8.43;22.07;101023.76;1813403;79;21174;-70
2021/03/10 10:00:32;;;;;;;7.70;4.78;;;;;;;8.56;22.52;101022.70;1813051;77;20296;-69
2021/03/10 10:03:00;;;;;;;9.33;4.47;;;;;;;8.53;22.34;101025.80;1791458;79;21305;-71
2021/03/10 10:05:37;;;;;;;7.20;4.47;;;;;;;8.54;23.13;101025.80;1794894;77;21194;-70
2021/03/10 10:08:10;;;;;;;6.30;4.20;;;;;;;8.30;22.46;101024.77;1806804;79;21194;-71
2021/03/10 10:10:40;;;;;;;8.20;4.62;;;;;;;7.91;21.70;101027.00;1784665;79;21202;-70
2021/03/10 10:13:09;;;;;;;6.47;3.92;;;;;;;7.79;23.11;101016.22;1753735;80;21650;-72
2021/03/10 10:15:38;;;;;;;9.08;4.42;;;;;;;7.94;22.97;101015.19;1798782;79;21209;-71
2021/03/10 10:18:07;;;;;;;12.55;5.05;;;;;;;8.61;23.00;101015.62;1791223;77;21143;-70
2021/03/10 10:20:38;;;;;;;6.67;4.42;;;;;;;9.08;21.50;101013.58;1795264;79;21177;-72
2021/03/10 10:23:13;;;;;;;9.88;4.53;;;;;;;8.75;20.74;101014.09;1771656;79;21201;-73
2021/03/10 10:25:46;;;;;;;9.05;4.25;;;;;;;8.58;21.85;101013.05;1796641;77;21194;-76
2021/03/10 10:28:22;;;;;;;9.65;5.35;;;;;;;8.66;21.06;101008.98;1803979;77;21362;-74
2021/03/10 10:30:58;;;;;;;8.30;4.87;;;;;;;8.72;21.30;101009.33;1799854;79;21634;-74
2021/03/10 10:33:29;;;;;;;7.87;4.10;;;;;;;8.75;21.90;101013.23;1797766;78;21598;-72
2021/03/10 10:36:00;;;;;;;8.63;4.47;;;;;;;8.78;21.03;101010.09;1763829;79;21131;-72
2021/03/10 10:41:50;;;;;;;11.95;6.15;;;;;;;8.07;21.41;100995.77;1818594;77;28241;-74
2021/03/10 10:44:53;;;;;;;10.82;5.28;;;;;;;7.90;22.28;100993.36;1768311;79;21757;-72
2021/03/10 10:47:56;;;;;;;13.60;5.10;;;;;;;8.13;22.26;100989.13;1796257;79;28293;-73
2021/03/10 10:50:26;;;;;;;8.13;4.87;;;;;;;8.16;21.80;100973.34;1759760;80;21210;-72
2021/03/10 10:52:54;;;;;;;9.33;4.90;;;;;;;8.12;21.78;100997.02;1760558;80;21346;-74
2021/03/10 10:55:26;;;;;;;9.85;5.70;;;;;;;8.04;21.74;100990.56;1735956;80;21207;-70
2021/03/10 10:57:56;;;;;;;8.93;5.10;;;;;;;8.10;22.91;100985.25;1688281;84;22167;-69
2021/03/10 11:00:26;;;;;;;10.75;5.08;;;;;;;8.17;21.96;100982.97;1676243;85;21237;-67
2021/03/10 11:02:56;;;;;;;9.83;5.20;;;;;;;8.30;22.25;100977.53;1735213;81;21270;-69
2021/03/10 11:05:25;;;;;;;12.95;6.83;;;;;;;8.37;21.35;100977.86;1763477;80;21203;-68
2021/03/10 11:07:54;;;;;;;10.00;5.55;;;;;;;7.96;21.67;100970.14;1743556;80;21202;-69
2021/03/10 11:10:24;;;;;;;8.38;4.95;;;;;;;7.89;22.36;100968.45;1735656;82;21155;-68
2021/03/10 11:12:53;;;;;;;13.95;6.10;;;;;;;7.97;22.14;100971.86;1738223;82;21198;-69
2021/03/10 11:15:23;;;;;;;12.95;4.78;;;;;;;7.60;22.66;100974.92;1746972;80;22143;-71
2021/03/10 11:34:49;;;;;;;8.20;4.80;;;;;;;7.09;22.11;100956.25;1716402;78;28327;-70
2021/03/10 11:37:19;;;;;;;7.72;4.22;;;;;;;6.21;23.28;100970.41;1686115;84;21192;-72
2021/03/10 11:39:56;;;;;;;7.45;4.53;;;;;;;5.40;24.22;100971.14;1846046;76;28455;-71
2021/03/10 11:42:25;;;;;;;8.05;4.83;;;;;;;5.15;26.78;100970.30;1789933;79;21155;-71
2021/03/10 11:44:52;;;;;;;9.15;4.80;;;;;;;5.12;25.41;100966.41;1784278;79;22261;-70
2021/03/10 11:47:23;;;;;;;12.78;5.10;;;;;;;4.73;24.86;100964.25;1791992;77;21143;-70
2021/03/10 11:50:05;;;;;;;9.95;5.25;;;;;;;4.19;25.48;100955.06;1719546;81;21558;-67
2021/03/10 11:52:33;;;;;;;9.78;5.60;;;;;;;4.05;26.54;100947.65;1721249;82;21189;-66
2021/03/10 11:55:03;;;;;;;12.10;4.72;;;;;;;4.10;25.77;100955.48;1720187;82;21176;-66
2021/03/10 11:57:30;;;;;;;6.22;3.92;;;;;;;4.18;25.46;100951.14;1737103;82;21161;-67
2021/03/10 11:59:58;;;;;;;8.05;4.65;;;;;;;4.08;25.75;100957.20;1713219;82;21219;-66
2021/03/10 12:02:28;;;;;;;13.53;5.10;;;;;;;4.01;26.03;100944.59;1728695;82;21196;-66